Time;durP1;ratioP1;P1;durP2;ratioP2;P2;SDS_P1;SDS_P2;PMS_P1;PMS_P2;Temp;Humidity;BMP_temperature;BMP_pressure;BME280_temperature;BME280_humidity;BME280_pressure;Samples;Min_cycle;Max_cycle;Signal;HPM_P1;HPM_P2
2021/10/22 00:00:15;;;;;;;17.02;3.47;;;;;;;6.19;85.23;101295.34;4980874;28;20088;-75
2021/10/22 00:02:40;;;;;;;15.65;2.35;;;;;;;6.27;85.03;101287.84;5003544;28;20022;-74
2021/10/22 00:05:06;;;;;;;18.15;2.45;;;;;;;6.21;84.57;101296.03;4992467;28;20411;-74
2021/10/22 00:07:32;;;;;;;17.48;3.10;;;;;;;6.12;85.16;101296.72;5004272;28;20190;-75
2021/10/22 00:09:58;;;;;;;17.63;2.58;;;;;;;6.10;85.04;101304.56;4985931;28;20034;-74
2021/10/22 00:12:23;;;;;;;20.40;3.03;;;;;;;6.11;84.94;101300.25;4981386;28;20041;-74
2021/10/22 00:14:49;;;;;;;14.27;3.00;;;;;;;6.08;85.16;101297.88;4990734;28;20034;-74
2021/10/22 00:17:15;;;;;;;13.88;2.53;;;;;;;5.98;85.86;101302.91;4981940;28;20038;-74
2021/10/22 00:19:41;;;;;;;16.23;3.03;;;;;;;5.94;86.31;101304.84;4973254;28;20030;-77
2021/10/22 00:22:06;;;;;;;17.45;3.03;;;;;;;6.00;85.65;101301.84;4989211;28;20030;-75
2021/10/22 00:24:32;;;;;;;10.35;2.05;;;;;;;5.94;86.20;101315.16;4986557;28;20041;-74
2021/10/22 00:26:58;;;;;;;13.57;2.58;;;;;;;6.02;85.53;101312.84;4989130;28;20038;-75
2021/10/22 00:29:23;;;;;;;13.30;2.83;;;;;;;5.95;85.82;101313.38;4970410;28;20053;-75
2021/10/22 00:31:49;;;;;;;10.85;2.72;;;;;;;5.84;86.55;101314.19;4977697;28;20175;-74
2021/10/22 00:34:14;;;;;;;11.18;2.40;;;;;;;5.87;85.94;101311.38;4987708;28;20026;-75
2021/10/22 00:36:40;;;;;;;14.65;2.35;;;;;;;5.81;86.42;101314.41;4989843;28;20034;-74
2021/10/22 00:39:07;;;;;;;18.05;3.05;;;;;;;5.72;86.84;101313.31;5004460;28;20039;-74
2021/10/22 00:41:34;;;;;;;19.67;3.35;;;;;;;5.81;86.75;101315.22;4985854;28;20022;-74
2021/10/22 00:44:00;;;;;;;16.17;1.98;;;;;;;5.74;86.88;101310.63;4984690;28;20034;-74
2021/10/22 00:46:29;;;;;;;18.60;2.60;;;;;;;5.73;86.97;101309.03;4970849;28;20549;-74
2021/10/22 00:48:55;;;;;;;18.75;3.08;;;;;;;5.64;87.93;101321.59;4990199;28;20034;-74
2021/10/22 00:51:23;;;;;;;15.13;2.40;;;;;;;5.78;87.17;101306.91;5003664;28;20136;-75
2021/10/22 00:53:51;;;;;;;18.05;2.63;;;;;;;5.75;87.22;101313.09;4968491;28;20043;-76
2021/10/22 00:56:17;;;;;;;17.25;2.50;;;;;;;5.68;87.61;101306.75;4971735;28;20060;-75
2021/10/22 00:58:42;;;;;;;12.90;2.35;;;;;;;5.71;87.25;101308.28;4971157;28;20471;-75
2021/10/22 01:01:08;;;;;;;16.45;2.47;;;;;;;5.80;86.51;101312.75;4988337;28;20038;-74
2021/10/22 01:03:34;;;;;;;17.77;2.75;;;;;;;5.70;87.04;101317.75;4977193;28;20038;-75
2021/10/22 01:06:01;;;;;;;13.77;2.08;;;;;;;5.64;87.26;101305.34;4973100;28;20038;-75
2021/10/22 01:08:29;;;;;;;13.23;1.92;;;;;;;5.60;87.09;101309.91;4997357;28;20100;-74
2021/10/22 01:10:55;;;;;;;17.58;2.63;;;;;;;5.50;87.77;101316.66;4985571;28;20049;-75
2021/10/22 01:13:21;;;;;;;20.10;3.15;;;;;;;5.52;88.10;101312.22;4970348;28;20026;-75
2021/10/22 01:15:46;;;;;;;18.13;2.17;;;;;;;5.53;87.91;101313.84;4989534;28;20476;-75
2021/10/22 01:18:12;;;;;;;15.10;2.67;;;;;;;5.62;87.30;101313.19;4974739;28;20019;-74
2021/10/22 01:20:39;;;;;;;12.57;2.47;;;;;;;5.64;87.35;101306.16;4971583;28;20065;-75
2021/10/22 01:23:05;;;;;;;22.27;3.38;;;;;;;5.77;86.88;101313.00;4974808;28;20169;-75
2021/10/22 01:25:32;;;;;;;14.48;2.80;;;;;;;5.61;87.01;101306.41;4988493;28;20129;-75
2021/10/22 01:27:57;;;;;;;21.33;3.38;;;;;;;5.61;87.01;101301.25;5003513;28;20062;-75
2021/10/22 01:30:26;;;;;;;18.92;3.85;;;;;;;5.63;87.46;101301.13;4987406;28;20387;-75
2021/10/22 01:32:58;;;;;;;18.70;2.92;;;;;;;5.47;87.61;101304.00;4987915;28;20026;-74
2021/10/22 01:35:24;;;;;;;18.75;4.60;;;;;;;5.47;87.94;101302.25;5003088;28;20034;-75
2021/10/22 01:37:49;;;;;;;17.08;3.97;;;;;;;5.45;87.92;101300.72;4976960;28;20111;-74
2021/10/22 01:40:15;;;;;;;18.98;3.13;;;;;;;5.54;88.13;101305.19;4988499;28;20030;-74
2021/10/22 01:42:40;;;;;;;16.90;3.03;;;;;;;5.46;87.68;101303.19;4988063;28;20463;-74
2021/10/22 01:45:09;;;;;;;22.92;4.32;;;;;;;5.35;88.21;101300.56;4972928;28;20034;-74
2021/10/22 01:47:34;;;;;;;21.75;3.70;;;;;;;5.36;88.20;101299.63;4972681;28;20105;-75
2021/10/22 01:50:00;;;;;;;19.80;3.50;;;;;;;5.42;88.21;101306.88;4970114;28;20041;-75
2021/10/22 01:52:26;;;;;;;14.05;3.70;;;;;;;5.43;88.49;101300.00;4991734;28;20041;-74
2021/10/22 01:54:51;;;;;;;19.42;2.95;;;;;;;5.34;88.05;101292.94;5003612;28;20100;-74
2021/10/22 01:57:17;;;;;;;14.32;3.60;;;;;;;5.28;88.75;101285.69;4987648;28;20475;-74
2021/10/22 01:59:46;;;;;;;15.80;3.90;;;;;;;5.46;87.41;101286.91;4971054;28;20026;-75
2021/10/22 02:02:12;;;;;;;24.02;3.92;;;;;;;5.42;87.57;101288.06;4970530;28;20093;-74
2021/10/22 02:04:39;;;;;;;16.83;3.97;;;;;;;5.34;87.73;101282.66;4972674;28;20125;-75
2021/10/22 02:07:04;;;;;;;16.02;2.95;;;;;;;5.33;87.58;101284.41;4978151;28;20126;-74
2021/10/22 02:09:30;;;;;;;24.25;3.85;;;;;;;5.43;86.88;101274.28;4970448;28;20104;-74
2021/10/22 02:11:56;;;;;;;15.52;3.10;;;;;;;5.31;86.98;101275.97;4985772;28;20066;-74
2021/10/22 02:14:21;;;;;;;20.02;4.45;;;;;;;5.34;86.66;101277.50;4989587;28;20433;-75
2021/10/22 02:16:48;;;;;;;15.18;3.50;;;;;;;5.29;86.87;101282.16;4992830;28;20109;-73
2021/10/22 02:19:14;;;;;;;15.82;3.72;;;;;;;5.24;87.58;101282.50;4969248;28;20121;-75
2021/10/22 02:21:40;;;;;;;21.52;3.22;;;;;;;5.29;87.02;101275.25;4974667;28;20034;-75
2021/10/22 02:24:06;;;;;;;38.83;4.72;;;;;;;5.23;86.69;101286.00;5005985;28;20053;-74
2021/10/22 02:26:34;;;;;;;21.15;3.97;;;;;;;5.16;87.03;101289.91;4976909;28;20096;-74
2021/10/22 02:29:00;;;;;;;17.60;3.38;;;;;;;5.30;86.83;101294.09;4991787;28;20034;-74
2021/10/22 02:31:26;;;;;;;20.52;3.75;;;;;;;5.23;85.88;101291.94;5012503;28;20026;-74
2021/10/22 02:33:51;;;;;;;15.68;3.75;;;;;;;5.16;86.42;101302.78;4974055;28;20038;-75
2021/10/22 02:36:17;;;;;;;24.48;4.07;;;;;;;5.15;85.86;101303.72;5006792;28;20042;-74
2021/10/22 02:38:44;;;;;;;17.13;3.22;;;;;;;5.17;86.19;101294.97;4990413;28;20030;-75
2021/10/22 02:41:10;;;;;;;23.33;3.40;;;;;;;5.18;85.94;101295.78;4991136;28;20026;-75
2021/10/22 02:43:36;;;;;;;12.07;2.60;;;;;;;5.07;86.20;101299.13;4991719;28;20129;-75
2021/10/22 02:46:03;;;;;;;17.02;3.30;;;;;;;5.02;86.01;101291.72;4972160;28;20038;-75
2021/10/22 02:48:28;;;;;;;16.70;3.30;;;;;;;4.99;86.25;101296.25;4997260;28;20061;-75
2021/10/22 02:50:54;;;;;;;13.90;3.75;;;;;;;4.94;86.92;101288.88;4997442;28;20394;-75
2021/10/22 02:53:20;;;;;;;14.10;3.70;;;;;;;4.98;86.57;101298.00;4972939;28;20295;-75
2021/10/22 02:55:45;;;;;;;17.52;4.03;;;;;;;5.04;85.83;101286.47;4990213;28;20054;-75
2021/10/22 02:58:14;;;;;;;15.98;2.85;;;;;;;4.96;85.79;101281.88;4989129;28;20031;-76
2021/10/22 03:00:43;;;;;;;15.82;2.97;;;;;;;5.01;85.78;101292.66;4986809;28;20088;-75
2021/10/22 03:03:09;;;;;;;12.98;2.50;;;;;;;4.98;85.05;101292.06;4988997;28;20088;-75
2021/10/22 03:05:35;;;;;;;14.60;3.05;;;;;;;4.99;84.45;101285.97;4990559;28;20395;-75
2021/10/22 03:08:00;;;;;;;18.58;3.55;;;;;;;4.96;85.11;101289.59;4990020;28;20053;-75
2021/10/22 03:10:27;;;;;;;21.90;4.05;;;;;;;5.06;84.42;101293.13;4988675;28;20557;-75
2021/10/22 03:12:53;;;;;;;22.33;3.15;;;;;;;5.00;84.58;101292.75;5003178;28;20074;-75
2021/10/22 03:15:19;;;;;;;21.40;2.97;;;;;;;4.98;85.04;101297.19;4990604;28;20502;-74
2021/10/22 03:17:45;;;;;;;21.42;3.00;;;;;;;4.94;85.17;101294.00;4976556;28;20049;-75
2021/10/22 03:20:11;;;;;;;22.08;3.47;;;;;;;4.91;85.06;101289.06;4990096;28;20030;-74
2021/10/22 03:22:37;;;;;;;18.88;3.20;;;;;;;4.83;85.38;101301.66;4972091;28;20030;-75
2021/10/22 03:25:04;;;;;;;20.65;4.13;;;;;;;4.85;84.90;101298.03;4989606;28;20038;-74
2021/10/22 03:27:30;;;;;;;18.67;3.13;;;;;;;4.77;85.51;101290.03;4989989;28;20235;-74
2021/10/22 03:29:56;;;;;;;16.25;3.35;;;;;;;4.86;84.30;101291.16;5002901;28;20491;-74
2021/10/22 03:32:21;;;;;;;16.80;3.35;;;;;;;4.86;84.37;101280.88;5004265;28;20034;-74
2021/10/22 03:34:48;;;;;;;21.48;3.22;;;;;;;4.92;83.86;101272.75;4994907;28;20037;-74
2021/10/22 03:37:14;;;;;;;15.15;2.78;;;;;;;4.92;83.87;101274.50;4986915;28;20512;-75
2021/10/22 03:39:40;;;;;;;22.77;4.88;;;;;;;4.85;84.31;101267.19;4971894;28;20066;-74
2021/10/22 03:42:06;;;;;;;16.17;2.92;;;;;;;4.90;83.92;101271.19;4971192;28;20034;-73
2021/10/22 03:44:31;;;;;;;21.58;3.28;;;;;;;4.79;83.97;101262.50;4988355;28;20073;-75
2021/10/22 03:46:57;;;;;;;16.52;2.95;;;;;;;4.84;84.49;101268.13;4989270;28;20491;-75
2021/10/22 03:49:23;;;;;;;18.83;2.92;;;;;;;4.92;83.68;101271.94;4990277;28;20058;-75
2021/10/22 03:51:49;;;;;;;18.98;2.83;;;;;;;4.82;83.95;101264.84;4971951;28;20067;-73
2021/10/22 03:54:14;;;;;;;21.77;2.78;;;;;;;4.81;83.69;101270.09;4989491;28;20093;-74
2021/10/22 03:56:40;;;;;;;26.13;3.42;;;;;;;4.76;83.97;101260.13;4972537;28;20037;-77
2021/10/22 03:59:08;;;;;;;17.08;2.72;;;;;;;4.80;84.28;101268.44;4990234;28;20043;-74
2021/10/22 04:01:34;;;;;;;15.82;2.63;;;;;;;4.78;83.84;101273.69;4977690;28;20117;-74
2021/10/22 04:03:59;;;;;;;20.10;2.63;;;;;;;4.78;83.90;101273.69;4990904;28;20081;-74
2021/10/22 04:06:25;;;;;;;20.73;3.13;;;;;;;4.76;83.61;101274.72;4999474;28;20351;-74
2021/10/22 04:08:50;;;;;;;15.10;2.78;;;;;;;4.74;84.16;101269.69;4974039;28;20049;-76
2021/10/22 04:11:16;;;;;;;18.40;3.40;;;;;;;4.63;84.09;101275.59;4973634;28;20038;-73
2021/10/22 04:13:42;;;;;;;17.45;3.63;;;;;;;4.85;83.32;101269.75;4989578;28;20041;-75
2021/10/22 04:16:08;;;;;;;14.80;3.50;;;;;;;4.81;83.49;101258.06;5005103;28;20038;-74
2021/10/22 04:18:36;;;;;;;21.45;2.92;;;;;;;4.71;83.40;101251.94;4974688;28;20501;-75
2021/10/22 04:21:02;;;;;;;16.83;3.08;;;;;;;4.67;83.74;101258.19;4991111;28;20034;-73
2021/10/22 04:23:27;;;;;;;17.58;2.53;;;;;;;4.78;83.05;101263.41;5008810;28;20490;-74
2021/10/22 04:25:54;;;;;;;9.75;2.47;;;;;;;4.77;83.00;101264.34;4968827;28;20030;-74
2021/10/22 04:28:20;;;;;;;15.10;3.15;;;;;;;4.79;82.86;101253.97;4990318;28;20461;-73
2021/10/22 04:30:45;;;;;;;12.80;3.08;;;;;;;4.77;83.10;101260.97;4987987;28;20066;-73
2021/10/22 04:33:14;;;;;;;12.48;2.97;;;;;;;4.72;82.69;101248.44;4996827;28;20036;-74
2021/10/22 04:35:39;;;;;;;20.02;3.97;;;;;;;4.71;82.53;101246.81;4956460;28;20048;-74
2021/10/22 04:40:54;;;;;;;23.85;3.78;;;;;;;4.78;82.76;101247.19;4987519;28;20097;-76
2021/10/22 04:43:21;;;;;;;16.48;3.25;;;;;;;4.88;82.02;101248.19;4984636;28;20054;-74
2021/10/22 04:45:49;;;;;;;22.52;3.53;;;;;;;4.80;82.21;101246.16;4976963;28;20132;-74
2021/10/22 04:48:19;;;;;;;15.07;3.25;;;;;;;4.79;82.46;101259.13;4987676;28;20062;-74
2021/10/22 04:50:51;;;;;;;16.75;3.13;;;;;;;4.71;83.10;101259.66;4998248;28;20121;-74
2021/10/22 04:53:18;;;;;;;12.98;3.13;;;;;;;4.68;82.31;101262.41;4970652;28;20034;-75
2021/10/22 04:55:44;;;;;;;19.38;2.50;;;;;;;4.82;82.12;101257.16;4988742;28;20068;-75
2021/10/22 04:58:10;;;;;;;22.05;3.20;;;;;;;4.76;82.53;101260.13;4971756;28;20109;-75
2021/10/22 05:00:36;;;;;;;16.55;3.08;;;;;;;4.74;82.50;101267.13;4991509;28;20160;-76
2021/10/22 05:03:01;;;;;;;11.80;2.70;;;;;;;4.78;82.32;101278.81;4973271;28;20036;-74
2021/10/22 05:05:27;;;;;;;22.83;3.45;;;;;;;4.78;82.09;101283.97;4987249;28;20049;-74
2021/10/22 05:07:53;;;;;;;16.38;2.70;;;;;;;4.86;81.85;101283.47;4989719;28;20022;-77
2021/10/22 05:10:19;;;;;;;18.00;3.08;;;;;;;4.88;81.48;101284.97;4970581;28;20045;-75
2021/10/22 05:12:44;;;;;;;15.77;3.00;;;;;;;4.83;82.06;101287.03;4970876;28;20092;-75
2021/10/22 05:15:11;;;;;;;11.02;2.58;;;;;;;4.81;82.06;101293.22;4974898;28;20018;-74
2021/10/22 05:17:37;;;;;;;15.43;3.30;;;;;;;4.86;81.74;101296.31;5003225;28;20053;-74
2021/10/22 05:20:05;;;;;;;22.05;3.40;;;;;;;4.92;81.75;101295.88;4995866;28;20435;-75
2021/10/22 05:22:31;;;;;;;14.77;2.90;;;;;;;4.84;82.06;101301.53;4985903;28;20035;-73
2021/10/22 05:24:57;;;;;;;17.00;2.97;;;;;;;4.98;81.38;101294.63;4973407;28;20109;-75
2021/10/22 05:27:22;;;;;;;25.98;3.05;;;;;;;4.93;81.82;101301.81;4989021;28;20053;-74
2021/10/22 05:29:48;;;;;;;17.38;5.43;;;;;;;4.86;81.90;101304.03;4986200;28;20038;-74
2021/10/22 05:32:14;;;;;;;16.08;3.13;;;;;;;4.88;81.49;101295.25;4994601;28;20208;-73
2021/10/22 05:34:39;;;;;;;17.75;2.83;;;;;;;4.92;82.18;101295.06;4953920;28;20049;-74
2021/10/22 05:37:08;;;;;;;22.42;4.63;;;;;;;4.83;81.95;101302.47;4968391;28;20031;-75
2021/10/22 05:39:39;;;;;;;16.75;3.60;;;;;;;4.85;82.42;101305.75;4993245;28;20033;-74
2021/10/22 05:42:05;;;;;;;19.77;3.45;;;;;;;4.89;81.38;101296.06;4974958;28;20042;-75
2021/10/22 05:44:31;;;;;;;12.00;2.80;;;;;;;4.91;81.19;101293.41;4973031;28;20153;-74
2021/10/22 05:46:57;;;;;;;14.35;2.83;;;;;;;4.84;81.84;101296.41;4987454;28;20129;-74
2021/10/22 05:49:23;;;;;;;15.32;3.30;;;;;;;4.88;81.37;101286.75;4979643;28;20084;-74
2021/10/22 05:51:51;;;;;;;19.58;3.75;;;;;;;4.80;81.04;101286.44;4985941;28;20034;-78
2021/10/22 05:54:17;;;;;;;12.88;2.50;;;;;;;4.83;81.31;101281.09;4972590;28;20039;-74
2021/10/22 05:56:46;;;;;;;14.80;3.95;;;;;;;4.83;81.19;101281.91;4979896;28;20040;-77
2021/10/22 05:59:11;;;;;;;13.68;3.20;;;;;;;4.91;81.42;101288.25;4991030;28;20113;-77
2021/10/22 06:01:37;;;;;;;14.50;3.15;;;;;;;5.01;80.92;101284.09;4976882;28;20030;-75
2021/10/22 06:04:05;;;;;;;18.58;3.35;;;;;;;4.93;80.92;101281.25;4987064;28;20041;-75
2021/10/22 06:06:30;;;;;;;22.55;3.92;;;;;;;4.83;81.25;101281.91;5000235;28;20120;-75
2021/10/22 06:09:00;;;;;;;12.05;2.80;;;;;;;4.84;80.91;101278.41;4974860;28;20030;-75
2021/10/22 06:11:26;;;;;;;13.05;3.67;;;;;;;4.93;80.96;101276.13;4974463;28;20651;-75
2021/10/22 06:13:51;;;;;;;14.95;2.65;;;;;;;4.92;80.53;101282.22;4974394;28;20307;-76
2021/10/22 06:16:17;;;;;;;14.90;2.63;;;;;;;4.90;81.02;101264.31;4976157;28;20045;-75
2021/10/22 06:18:47;;;;;;;19.63;3.67;;;;;;;4.82;80.91;101261.44;4975462;28;20018;-75
2021/10/22 06:21:34;;;;;;;18.48;3.72;;;;;;;4.90;80.49;101261.75;4990803;28;20149;-75
2021/10/22 06:24:02;;;;;;;21.85;3.80;;;;;;;4.95;80.94;101257.09;4990274;28;20034;-76
2021/10/22 06:26:33;;;;;;;16.38;3.28;;;;;;;4.91;80.43;101262.56;4995654;28;20034;-74
2021/10/22 06:29:00;;;;;;;14.75;4.45;;;;;;;4.96;80.24;101250.22;4991638;28;20041;-75
2021/10/22 06:31:26;;;;;;;24.35;4.57;;;;;;;4.92;80.14;101257.31;5002241;28;20057;-75
2021/10/22 06:33:52;;;;;;;15.05;3.92;;;;;;;4.99;80.37;101248.25;4968539;28;20031;-75
2021/10/22 06:36:18;;;;;;;9.35;2.92;;;;;;;4.94;80.60;101254.66;4959048;28;20061;-77
2021/10/22 06:38:43;;;;;;;11.85;2.90;;;;;;;5.02;80.39;101254.91;4977018;28;20113;-74
2021/10/22 06:41:09;;;;;;;17.52;3.00;;;;;;;5.02;80.18;101239.50;4991197;28;20510;-76
2021/10/22 06:43:36;;;;;;;16.98;4.80;;;;;;;5.01;80.40;101256.69;4989115;28;20027;-77
2021/10/22 06:46:02;;;;;;;18.35;5.47;;;;;;;4.99;80.10;101258.53;4992812;28;20040;-76
2021/10/22 06:48:27;;;;;;;16.38;3.60;;;;;;;5.15;79.40;101242.84;4987843;28;20597;-75
2021/10/22 06:50:53;;;;;;;14.20;3.25;;;;;;;5.16;79.37;101246.22;4991788;28;20035;-74
2021/10/22 06:53:19;;;;;;;68.40;22.55;;;;;;;5.21;79.40;101244.94;4987351;28;20038;-74
2021/10/22 06:55:44;;;;;;;19.25;4.68;;;;;;;5.17;79.39;101247.88;4973960;28;20064;-74
2021/10/22 06:58:10;;;;;;;15.65;3.25;;;;;;;5.16;79.78;101252.19;4989002;28;20022;-76
2021/10/22 07:00:36;;;;;;;14.20;6.30;;;;;;;5.26;79.12;101250.59;5002480;28;20033;-73
2021/10/22 07:03:02;;;;;;;20.77;3.80;;;;;;;5.31;78.92;101250.25;4994370;28;20491;-74
2021/10/22 07:07:59;;;;;;;12.43;2.22;;;;;;;5.40;79.16;101264.22;4989660;28;20085;-75
2021/10/22 07:10:25;;;;;;;14.85;2.67;;;;;;;5.47;79.13;101271.38;4971712;28;20479;-75
2021/10/22 07:12:51;;;;;;;17.75;2.85;;;;;;;5.62;78.31;101263.47;4987832;28;20030;-75
2021/10/22 07:15:21;;;;;;;11.13;2.20;;;;;;;5.58;78.35;101265.44;4983473;28;20034;-75
2021/10/22 07:17:46;;;;;;;15.57;2.42;;;;;;;5.60;78.51;101271.31;4984168;28;20424;-73
2021/10/22 07:20:13;;;;;;;14.05;2.30;;;;;;;5.74;78.33;101269.47;4997935;28;20037;-75
2021/10/22 07:22:48;;;;;;;11.80;2.83;;;;;;;5.82;78.80;101272.28;4986054;28;20113;-75
2021/10/22 07:25:15;;;;;;;14.60;2.33;;;;;;;5.99;78.58;101282.19;4973700;28;20451;-75
2021/10/22 07:27:40;;;;;;;14.30;2.60;;;;;;;6.01;78.38;101277.75;4993281;28;20109;-74
2021/10/22 07:30:07;;;;;;;8.40;2.42;;;;;;;6.02;78.85;101287.09;4972660;28;20030;-75
2021/10/22 07:32:33;;;;;;;14.95;2.70;;;;;;;5.96;78.97;101285.00;4989942;28;20026;-76
2021/10/22 07:34:59;;;;;;;14.50;2.15;;;;;;;6.05;78.36;101286.06;4973134;28;20038;-74
2021/10/22 07:37:24;;;;;;;12.27;2.50;;;;;;;6.10;78.54;101281.38;4986891;28;20018;-74
2021/10/22 07:39:51;;;;;;;17.58;3.00;;;;;;;6.18;77.96;101284.22;4984041;28;20034;-75
2021/10/22 07:42:16;;;;;;;14.07;2.33;;;;;;;6.18;78.36;101286.78;4971993;28;20099;-75
2021/10/22 07:44:42;;;;;;;19.70;3.03;;;;;;;6.29;77.17;101285.16;4972086;28;20034;-74
2021/10/22 07:47:07;;;;;;;13.48;2.45;;;;;;;6.27;77.58;101284.44;4969981;28;20031;-74
2021/10/22 07:49:33;;;;;;;12.45;2.28;;;;;;;6.28;78.35;101298.97;4973521;28;20034;-75
2021/10/22 07:51:59;;;;;;;11.35;3.22;;;;;;;6.55;77.48;101293.47;4970351;28;20022;-74
2021/10/22 07:54:25;;;;;;;18.90;2.55;;;;;;;6.97;75.78;101288.53;4989250;28;20457;-73
2021/10/22 07:56:50;;;;;;;13.65;2.58;;;;;;;7.42;73.90;101288.38;4992112;28;20411;-74
2021/10/22 07:59:16;;;;;;;15.63;2.00;;;;;;;7.85;72.10;101291.81;4973396;28;20036;-76
2021/10/22 08:01:43;;;;;;;13.85;2.50;;;;;;;8.23;70.69;101291.22;5003750;28;20030;-75
2021/10/22 08:04:10;;;;;;;12.38;2.33;;;;;;;8.74;68.93;101280.03;4990059;28;20614;-75
2021/10/22 08:06:37;;;;;;;11.70;1.88;;;;;;;8.79;68.15;101297.72;4974693;28;20081;-74
2021/10/22 08:09:03;;;;;;;11.35;2.03;;;;;;;8.55;69.18;101298.88;4988672;28;20034;-75
2021/10/22 08:11:29;;;;;;;16.75;2.20;;;;;;;8.38;70.55;101302.03;4970526;28;20037;-74
2021/10/22 08:13:55;;;;;;;8.55;2.72;;;;;;;8.37;70.03;101293.47;4973383;28;20030;-75
2021/10/22 08:16:21;;;;;;;11.38;2.30;;;;;;;8.27;69.95;101290.03;4984943;28;20089;-75
2021/10/22 08:18:47;;;;;;;14.75;3.20;;;;;;;8.07;70.94;101296.03;4986291;28;20259;-75
2021/10/22 08:23:49;;;;;;;15.63;3.95;;;;;;;8.75;70.09;101304.91;5000327;28;20030;-73
2021/10/22 08:26:16;;;;;;;11.65;2.95;;;;;;;9.42;67.79;101306.94;4965734;28;20501;-75
2021/10/22 08:28:42;;;;;;;12.52;2.42;;;;;;;9.29;67.75;101307.22;4988242;28;20026;-75
2021/10/22 08:31:08;;;;;;;12.02;2.60;;;;;;;8.76;69.44;101322.06;4969217;28;20116;-75
2021/10/22 08:33:34;;;;;;;14.05;2.85;;;;;;;9.15;68.97;101319.59;4986110;28;20151;-74
2021/10/22 08:35:59;;;;;;;15.70;2.83;;;;;;;9.10;68.50;101310.59;4999446;28;20109;-75
2021/10/22 08:38:29;;;;;;;9.57;2.15;;;;;;;8.81;69.67;101336.38;4972924;28;20038;-76
2021/10/22 08:40:56;;;;;;;8.23;2.05;;;;;;;8.59;70.22;101335.63;4979959;28;20254;-75
2021/10/22 08:43:24;;;;;;;16.05;4.43;;;;;;;8.44;71.81;101332.56;4960684;28;20042;-77
2021/10/22 08:45:55;;;;;;;11.40;2.50;;;;;;;8.25;71.78;101324.66;4989623;28;20124;-77
2021/10/22 08:48:20;;;;;;;12.30;2.60;;;;;;;8.40;72.19;101326.00;4990401;28;20028;-77
2021/10/22 08:50:46;;;;;;;10.40;1.85;;;;;;;8.39;72.27;101330.31;4974370;28;20393;-73
2021/10/22 08:53:16;;;;;;;13.63;4.72;;;;;;;8.38;72.59;101325.28;4991860;28;20110;-74
2021/10/22 08:55:43;;;;;;;20.58;6.55;;;;;;;8.31;72.96;101347.44;4973834;28;20029;-77
2021/10/22 08:58:09;;;;;;;11.02;3.53;;;;;;;8.23;72.66;101339.47;4972502;28;20120;-75
2021/10/22 09:00:34;;;;;;;16.25;3.40;;;;;;;8.23;73.44;101340.31;4976137;28;20040;-77
2021/10/22 09:03:08;;;;;;;13.70;2.38;;;;;;;8.35;72.70;101335.88;4987712;28;20042;-76
2021/10/22 09:05:35;;;;;;;16.27;1.80;;;;;;;8.25;72.69;101327.25;4972439;28;20034;-73
2021/10/22 09:08:05;;;;;;;13.65;1.65;;;;;;;8.23;73.51;101330.00;4983359;28;20449;-75
2021/10/22 09:10:36;;;;;;;26.17;3.47;;;;;;;8.35;73.09;101333.31;4998804;28;20056;-77
2021/10/22 09:13:09;;;;;;;20.13;2.90;;;;;;;8.45;73.11;101323.03;4991579;28;20043;-75
2021/10/22 09:15:39;;;;;;;13.10;2.40;;;;;;;8.47;72.59;101326.31;4988677;28;20037;-75
2021/10/22 09:18:24;;;;;;;17.98;2.80;;;;;;;8.46;72.57;101322.91;4986694;28;20084;-75
2021/10/22 09:21:07;;;;;;;11.20;2.58;;;;;;;8.70;72.98;101325.19;4978007;28;20035;-77
2021/10/22 09:23:38;;;;;;;11.73;2.80;;;;;;;8.83;72.23;101335.28;5004112;28;20034;-76
2021/10/22 09:26:27;;;;;;;10.82;2.75;;;;;;;9.11;71.53;101330.31;4991333;28;20442;-77
2021/10/22 09:28:54;;;;;;;15.00;2.17;;;;;;;9.30;70.98;101332.13;4976229;28;20124;-76
2021/10/22 09:31:21;;;;;;;49.05;15.70;;;;;;;9.14;70.33;101330.88;4978460;28;20052;-75
2021/10/22 09:34:01;;;;;;;22.67;7.72;;;;;;;9.11;71.37;101325.97;4992752;28;20029;-77
2021/10/22 09:36:35;;;;;;;13.15;3.03;;;;;;;9.26;72.12;101328.19;4977942;28;20034;-76
2021/10/22 09:39:18;;;;;;;36.70;10.20;;;;;;;9.41;72.20;101336.38;5000793;28;20482;-76
2021/10/22 09:41:52;;;;;;;15.63;3.95;;;;;;;9.32;70.27;101325.88;4982691;28;20506;-75
2021/10/22 09:44:22;;;;;;;69.60;21.13;;;;;;;9.35;70.89;101337.72;4976988;28;20037;-75
2021/10/22 09:47:11;;;;;;;17.88;4.60;;;;;;;9.33;71.19;101335.25;4991637;28;20136;-76
2021/10/22 09:49:40;;;;;;;26.85;7.05;;;;;;;9.49;71.85;101336.50;4991923;28;20394;-74
2021/10/22 09:52:15;;;;;;;24.58;8.45;;;;;;;9.48;70.51;101334.88;4975849;28;20131;-76
2021/10/22 09:54:42;;;;;;;26.83;7.93;;;;;;;9.59;71.12;101328.72;4990991;28;20079;-76
2021/10/22 09:57:07;;;;;;;11.13;3.13;;;;;;;9.53;70.19;101336.09;4990037;28;20035;-75
2021/10/22 09:59:36;;;;;;;20.33;6.32;;;;;;;9.55;70.83;101330.81;4993104;28;20038;-76
2021/10/22 10:02:07;;;;;;;28.58;6.55;;;;;;;9.59;70.83;101326.13;4976902;28;20502;-75
2021/10/22 10:04:32;;;;;;;21.77;4.80;;;;;;;9.71;70.31;101327.66;4990843;28;20038;-76
2021/10/22 10:07:00;;;;;;;27.08;10.18;;;;;;;9.69;71.22;101317.41;4973529;28;20034;-80
2021/10/22 10:09:27;;;;;;;23.27;6.18;;;;;;;9.78;70.31;101318.38;4941664;28;20041;-76
2021/10/22 10:11:55;;;;;;;21.80;4.28;;;;;;;9.67;69.83;101331.47;4975336;28;20100;-75
2021/10/22 10:14:27;;;;;;;27.45;7.43;;;;;;;9.70;70.42;101319.06;4988715;28;20196;-75
2021/10/22 10:16:54;;;;;;;11.40;5.00;;;;;;;9.76;70.86;101325.47;4991252;28;20109;-75
2021/10/22 10:19:37;;;;;;;14.93;3.55;;;;;;;9.71;70.11;101327.66;4989901;28;20310;-75
2021/10/22 10:22:06;;;;;;;17.88;3.60;;;;;;;9.74;70.34;101337.75;4992120;28;20125;-77
2021/10/22 10:24:38;;;;;;;12.65;2.60;;;;;;;9.83;70.37;101334.34;4975273;28;20025;-75
2021/10/22 10:27:09;;;;;;;10.07;2.67;;;;;;;9.85;69.94;101334.16;4989788;28;20041;-75
2021/10/22 10:29:42;;;;;;;14.43;2.60;;;;;;;9.79;69.59;101345.91;4984934;28;20044;-74
2021/10/22 10:32:16;;;;;;;10.73;2.28;;;;;;;9.92;68.67;101340.44;4986172;28;20125;-78
2021/10/22 10:34:52;;;;;;;10.13;2.28;;;;;;;9.93;69.75;101344.69;4985473;28;20399;-74
2021/10/22 10:37:35;;;;;;;8.32;2.30;;;;;;;9.94;68.40;101349.72;5004107;28;20479;-73
2021/10/22 10:40:07;;;;;;;22.80;5.65;;;;;;;9.98;68.27;101349.44;4986474;28;20042;-77
2021/10/22 10:42:51;;;;;;;16.30;2.50;;;;;;;10.06;68.22;101354.75;4971580;28;20192;-80
2021/10/22 10:45:25;;;;;;;13.80;3.40;;;;;;;10.16;67.68;101365.09;4972083;28;20053;-78
2021/10/22 10:47:55;;;;;;;14.52;2.88;;;;;;;10.13;67.96;101361.00;4992464;28;20158;-75
2021/10/22 10:50:37;;;;;;;6.43;2.22;;;;;;;10.28;68.51;101348.41;4990834;28;20062;-75
2021/10/22 10:53:03;;;;;;;12.88;3.10;;;;;;;10.14;67.44;101347.91;4989045;28;20045;-75
2021/10/22 10:55:30;;;;;;;12.75;2.78;;;;;;;10.09;68.66;101357.06;4992908;28;20025;-76
2021/10/22 10:58:16;;;;;;;14.43;3.08;;;;;;;10.25;67.92;101365.06;4980882;28;20042;-74
2021/10/22 11:00:47;;;;;;;17.35;6.07;;;;;;;10.35;67.55;101346.94;4975700;28;20041;-79
2021/10/22 11:03:19;;;;;;;12.98;2.38;;;;;;;10.43;68.23;101328.88;4979397;28;20062;-75
2021/10/22 11:08:16;;;;;;;9.75;1.50;;;;;;;10.25;67.44;101339.16;5002868;28;20026;-78
2021/10/22 11:13:51;;;;;;;18.55;2.28;;;;;;;10.38;67.38;101351.00;4989687;28;20467;-76
2021/10/22 11:16:22;;;;;;;11.23;2.00;;;;;;;10.50;68.76;101355.88;4975907;28;20471;-78
2021/10/22 11:19:00;;;;;;;8.50;1.90;;;;;;;10.61;67.84;101348.91;4987551;28;20046;-75
2021/10/22 11:21:28;;;;;;;11.90;1.98;;;;;;;10.60;67.33;101360.22;4986307;28;20034;-74
2021/10/22 11:23:55;;;;;;;15.18;2.75;;;;;;;10.66;67.19;101355.28;4976917;28;20033;-76
2021/10/22 11:26:21;;;;;;;10.93;1.63;;;;;;;10.59;66.67;101368.97;4990334;28;20125;-75
2021/10/22 11:28:51;;;;;;;5.03;1.30;;;;;;;10.43;66.91;101364.38;4980765;28;20028;-77
2021/10/22 11:31:40;;;;;;;14.27;2.83;;;;;;;10.41;68.21;101366.28;5004383;28;20037;-77
2021/10/22 11:34:07;;;;;;;10.45;1.70;;;;;;;10.57;67.60;101376.06;4976643;28;20046;-74
2021/10/22 11:36:34;;;;;;;12.38;1.52;;;;;;;10.57;67.05;101358.75;4975122;28;20030;-75
2021/10/22 11:39:00;;;;;;;8.52;2.13;;;;;;;10.58;67.06;101373.31;4959493;28;20031;-76